Time;durP1;ratioP1;P1;durP2;ratioP2;P2;SDS_P1;SDS_P2;PMS_P1;PMS_P2;Temp;Humidity;BMP_temperature;BMP_pressure;BME280_temperature;BME280_humidity;BME280_pressure;Samples;Min_cycle;Max_cycle;Signal;HPM_P1;HPM_P2
2021/07/10 00:02:17;;;;;;;38.17;18.52;;;;;;;14.92;100.00;101960.53;5203332;28;20039;-80
2021/07/10 00:04:48;;;;;;;36.50;17.25;;;;;;;14.89;100.00;101955.47;5182965;28;20116;-80
2021/07/10 00:07:19;;;;;;;38.55;17.95;;;;;;;14.85;100.00;101959.50;5186407;28;20033;-80
2021/07/10 00:09:49;;;;;;;34.97;18.55;;;;;;;14.81;100.00;101952.75;5202490;28;20092;-80
2021/07/10 00:12:20;;;;;;;35.75;18.75;;;;;;;14.80;100.00;101956.47;5203779;28;20112;-81
2021/07/10 00:14:51;;;;;;;39.45;19.20;;;;;;;14.73;100.00;101946.31;5203574;28;20025;-80
2021/07/10 00:17:21;;;;;;;36.67;19.35;;;;;;;14.74;100.00;101949.88;5166510;28;20499;-80
2021/07/10 00:19:52;;;;;;;38.55;18.33;;;;;;;14.73;100.00;101946.31;5182061;28;20034;-80
2021/07/10 00:22:23;;;;;;;36.15;19.25;;;;;;;14.73;100.00;101957.13;5183251;28;20029;-80
2021/07/10 00:24:53;;;;;;;40.70;18.33;;;;;;;14.72;100.00;101954.59;5182863;28;20033;-80
2021/07/10 00:27:24;;;;;;;45.33;20.02;;;;;;;14.74;100.00;101950.72;5183369;28;20028;-80
2021/07/10 00:29:54;;;;;;;43.67;20.42;;;;;;;14.77;100.00;101950.41;5181781;28;20472;-80
2021/07/10 00:32:25;;;;;;;39.92;19.50;;;;;;;14.78;100.00;101943.13;5183380;28;20084;-80
2021/07/10 00:34:55;;;;;;;37.67;19.60;;;;;;;14.80;100.00;101941.09;5183106;28;20022;-80
2021/07/10 00:37:26;;;;;;;38.67;19.00;;;;;;;14.77;100.00;101933.34;5183534;28;20123;-80
2021/07/10 00:39:56;;;;;;;38.97;19.10;;;;;;;14.75;100.00;101933.50;5180961;28;20037;-81
2021/07/10 00:42:27;;;;;;;36.17;19.23;;;;;;;14.73;100.00;101927.41;5164822;28;20030;-81
2021/07/10 00:44:57;;;;;;;39.05;20.40;;;;;;;14.72;100.00;101933.00;5182504;28;20029;-80
2021/07/10 00:47:28;;;;;;;41.60;19.45;;;;;;;14.71;100.00;101936.72;5165483;28;20053;-80
2021/07/10 00:49:58;;;;;;;38.22;18.67;;;;;;;14.66;100.00;101928.25;5164165;28;20017;-81
2021/07/10 00:52:29;;;;;;;42.28;19.08;;;;;;;14.64;100.00;101930.28;5182666;28;20034;-80
2021/07/10 00:54:59;;;;;;;34.88;17.10;;;;;;;14.65;100.00;101929.25;5164818;28;20204;-81
2021/07/10 00:57:30;;;;;;;38.85;18.13;;;;;;;14.67;100.00;101932.66;5187044;28;20056;-81
2021/07/10 01:00:06;;;;;;;39.90;20.55;;;;;;;14.68;100.00;101924.38;5202119;28;20030;-80
2021/07/10 01:02:39;;;;;;;43.50;20.27;;;;;;;14.70;100.00;101922.34;5179707;28;20041;-80
2021/07/10 01:05:13;;;;;;;43.95;21.92;;;;;;;14.70;100.00;101922.34;5185285;28;20025;-80
2021/07/10 01:07:44;;;;;;;40.80;20.08;;;;;;;14.66;100.00;101918.31;5203657;28;20029;-80
2021/07/10 01:10:16;;;;;;;35.05;17.65;;;;;;;14.62;100.00;101913.41;5185861;28;20443;-80
2021/07/10 01:12:48;;;;;;;40.20;19.67;;;;;;;14.58;100.00;101912.06;5182605;28;20037;-80
2021/07/10 01:15:22;;;;;;;39.85;19.50;;;;;;;14.56;100.00;101906.81;5182882;28;20044;-80
2021/07/10 01:18:04;;;;;;;35.78;19.50;;;;;;;14.54;100.00;101895.31;5182850;28;20044;-81
2021/07/10 01:20:52;;;;;;;37.85;19.13;;;;;;;14.54;100.00;101903.44;5170117;28;20059;-80
2021/07/10 01:23:42;;;;;;;39.33;20.05;;;;;;;14.52;100.00;101894.66;5168764;28;20072;-80
2021/07/10 01:26:13;;;;;;;33.78;18.35;;;;;;;14.49;100.00;101887.72;5182002;28;20061;-80
2021/07/10 01:28:43;;;;;;;40.17;20.00;;;;;;;14.49;100.00;101890.41;5182762;28;20030;-80
2021/07/10 01:31:18;;;;;;;45.72;21.65;;;;;;;14.51;100.00;101887.56;5180729;28;20033;-80
2021/07/10 01:33:48;;;;;;;38.45;19.83;;;;;;;14.51;100.00;101882.19;5182436;28;20558;-80
2021/07/10 01:36:19;;;;;;;40.92;21.40;;;;;;;14.49;100.00;101878.78;5182304;28;20109;-80
2021/07/10 01:38:50;;;;;;;42.38;20.65;;;;;;;14.49;100.00;101876.09;5181750;28;20041;-80
2021/07/10 01:41:21;;;;;;;41.25;19.67;;;;;;;14.50;100.00;101872.38;5163718;28;20018;-80
2021/07/10 01:43:51;;;;;;;39.92;19.42;;;;;;;14.46;100.00;101873.69;5181459;28;20171;-80
2021/07/10 01:46:22;;;;;;;35.47;18.38;;;;;;;14.45;100.00;101872.00;5182313;28;20049;-80
2021/07/10 01:48:52;;;;;;;44.58;21.10;;;;;;;14.44;100.00;101859.50;5181715;28;20053;-80
2021/07/10 01:51:33;;;;;;;36.38;20.33;;;;;;;14.46;100.00;101865.59;5190793;28;20037;-80
2021/07/10 01:54:04;;;;;;;38.30;20.77;;;;;;;14.45;100.00;101861.19;5185937;28;20109;-80
2021/07/10 01:56:34;;;;;;;34.95;18.05;;;;;;;14.43;100.00;101863.22;5182565;28;20052;-80
2021/07/10 01:59:05;;;;;;;44.75;20.10;;;;;;;14.43;100.00;101860.53;5193618;28;20468;-80
2021/07/10 02:01:36;;;;;;;42.17;21.33;;;;;;;14.42;100.00;101864.25;5181488;28;20044;-80
2021/07/10 02:04:08;;;;;;;41.97;21.02;;;;;;;14.41;100.00;101863.41;5182561;28;20056;-80
2021/07/10 02:06:38;;;;;;;37.10;20.13;;;;;;;14.35;100.00;101855.94;5194940;28;20037;-80
2021/07/10 02:09:09;;;;;;;39.40;18.65;;;;;;;14.32;100.00;101855.47;5200107;28;20060;-80
2021/07/10 02:11:46;;;;;;;43.15;21.95;;;;;;;14.28;100.00;101857.63;5201937;28;20037;-80
2021/07/10 02:14:19;;;;;;;43.85;20.50;;;;;;;14.27;100.00;101853.25;5182823;28;20027;-80
2021/07/10 02:16:50;;;;;;;42.47;20.77;;;;;;;14.25;100.00;101844.47;5202573;28;20021;-80
2021/07/10 02:19:20;;;;;;;39.50;19.50;;;;;;;14.21;100.00;101843.13;5200652;28;20051;-80
2021/07/10 02:21:51;;;;;;;37.40;20.35;;;;;;;14.16;100.00;101834.69;5202074;28;20025;-80
2021/07/10 02:24:21;;;;;;;42.55;20.20;;;;;;;14.11;100.00;101837.88;5201059;28;20033;-80
2021/07/10 02:26:52;;;;;;;37.95;19.58;;;;;;;14.06;100.00;101842.91;5184527;28;20461;-80
2021/07/10 02:29:22;;;;;;;40.72;20.52;;;;;;;14.03;100.00;101835.16;5180254;28;20034;-80
2021/07/10 02:31:53;;;;;;;43.20;20.83;;;;;;;14.01;100.00;101831.78;5181712;28;20036;-81
2021/07/10 02:34:24;;;;;;;44.55;20.30;;;;;;;13.98;100.00;101838.34;5180924;28;20022;-80
2021/07/10 02:36:55;;;;;;;40.65;19.27;;;;;;;13.93;100.00;101840.69;5181146;28;20104;-80
2021/07/10 02:39:25;;;;;;;43.97;21.42;;;;;;;13.85;100.00;101827.16;5179810;28;20022;-80
2021/07/10 02:41:56;;;;;;;35.08;18.83;;;;;;;13.80;100.00;101823.25;5181744;28;20056;-80
2021/07/10 02:44:26;;;;;;;36.53;19.95;;;;;;;13.73;100.00;101826.63;5180639;28;20488;-81
2021/07/10 02:46:57;;;;;;;39.90;19.30;;;;;;;13.69;100.00;101833.34;5181982;28;20070;-80
2021/07/10 02:49:27;;;;;;;42.80;20.35;;;;;;;13.74;100.00;101824.78;5162317;28;20037;-80
2021/07/10 02:51:59;;;;;;;42.20;20.50;;;;;;;13.70;100.00;101824.28;5164065;28;20527;-80
2021/07/10 02:54:29;;;;;;;37.60;19.35;;;;;;;13.67;100.00;101815.66;5180594;28;20026;-80
2021/07/10 02:56:59;;;;;;;50.92;22.73;;;;;;;13.63;100.00;101814.28;5180178;28;20189;-80
2021/07/10 02:59:30;;;;;;;46.63;21.60;;;;;;;13.62;100.00;101815.28;5197193;28;20033;-80
2021/07/10 03:02:00;;;;;;;42.50;20.48;;;;;;;13.55;100.00;101820.47;5202836;28;20037;-81
2021/07/10 03:04:31;;;;;;;38.55;19.35;;;;;;;13.46;100.00;101829.56;5162995;28;20128;-80
2021/07/10 03:07:02;;;;;;;50.63;22.00;;;;;;;13.42;100.00;101830.88;5196536;28;20049;-80
2021/07/10 03:09:32;;;;;;;39.13;17.90;;;;;;;13.41;100.00;101821.13;5200235;28;20026;-81
2021/07/10 03:12:05;;;;;;;45.13;19.48;;;;;;;13.45;100.00;101819.75;5200671;28;20557;-80
2021/07/10 03:14:35;;;;;;;42.45;21.17;;;;;;;13.43;100.00;101809.16;5200523;28;20025;-80
2021/07/10 03:17:06;;;;;;;41.25;20.10;;;;;;;13.45;100.00;101804.47;5201697;28;20504;-80
2021/07/10 03:19:36;;;;;;;37.90;19.63;;;;;;;13.46;100.00;101800.75;5200024;28;20025;-80
2021/07/10 03:22:07;;;;;;;37.40;19.23;;;;;;;13.43;100.00;101802.91;5182320;28;20061;-80
2021/07/10 03:24:37;;;;;;;40.88;20.42;;;;;;;13.38;100.00;101808.78;5180693;28;20072;-81
2021/07/10 03:27:08;;;;;;;40.42;20.75;;;;;;;13.35;100.00;101801.00;5184082;28;20397;-81
2021/07/10 03:29:38;;;;;;;42.70;20.98;;;;;;;13.34;100.00;101801.19;5183247;28;20072;-81
2021/07/10 03:32:09;;;;;;;50.90;24.50;;;;;;;13.32;100.00;101804.03;5184517;28;20073;-81
2021/07/10 03:34:39;;;;;;;40.92;20.40;;;;;;;13.32;100.00;101800.50;5184385;28;20022;-80
2021/07/10 03:37:10;;;;;;;44.40;22.38;;;;;;;13.34;100.00;101798.50;5184459;28;20041;-80
2021/07/10 03:39:41;;;;;;;41.88;22.33;;;;;;;13.35;100.00;101809.09;5183526;28;20041;-80
2021/07/10 03:42:11;;;;;;;49.92;24.15;;;;;;;13.36;100.00;101802.72;5184209;28;20532;-81
2021/07/10 03:44:42;;;;;;;48.35;23.90;;;;;;;13.37;100.00;101806.25;5183848;28;20034;-80
2021/07/10 03:47:12;;;;;;;49.83;22.65;;;;;;;13.40;100.00;101808.63;5195848;28;20104;-81
2021/07/10 03:49:43;;;;;;;43.75;21.45;;;;;;;13.40;100.00;101795.13;5203469;28;20107;-80
2021/07/10 03:52:14;;;;;;;42.80;20.90;;;;;;;13.41;100.00;101796.84;5204161;28;20024;-80
2021/07/10 03:54:46;;;;;;;43.72;19.92;;;;;;;13.43;100.00;101795.66;5204575;28;20025;-81
2021/07/10 03:57:16;;;;;;;40.75;21.70;;;;;;;13.47;100.00;101797.03;5192677;28;20076;-81
2021/07/10 03:59:47;;;;;;;36.35;19.80;;;;;;;13.51;100.00;101797.56;5185732;28;20037;-81
2021/07/10 04:02:17;;;;;;;36.42;19.08;;;;;;;13.50;100.00;101787.75;5185638;28;20542;-81
2021/07/10 04:04:48;;;;;;;40.75;20.88;;;;;;;13.56;100.00;101789.84;5183848;28;20041;-81
2021/07/10 04:07:18;;;;;;;39.88;19.27;;;;;;;13.59;100.00;101786.78;5183319;28;20026;-81
2021/07/10 04:09:49;;;;;;;40.30;20.27;;;;;;;13.60;100.00;101785.78;5182873;28;20032;-81
2021/07/10 04:12:19;;;;;;;39.72;19.33;;;;;;;13.63;100.00;101787.31;5183682;28;20037;-81
2021/07/10 04:14:50;;;;;;;42.55;20.27;;;;;;;13.66;100.00;101771.66;5183212;28;20515;-81
2021/07/10 04:17:21;;;;;;;38.40;19.25;;;;;;;13.70;100.00;101782.94;5183785;28;20025;-81
2021/07/10 04:19:51;;;;;;;36.70;19.77;;;;;;;13.78;100.00;101776.75;5182598;28;20036;-81
2021/07/10 04:22:22;;;;;;;42.75;21.38;;;;;;;13.84;100.00;101776.94;5183551;28;20058;-80
2021/07/10 04:24:53;;;;;;;45.63;22.30;;;;;;;13.91;100.00;101779.81;5183098;28;20029;-80
2021/07/10 04:27:23;;;;;;;38.65;20.27;;;;;;;13.96;100.00;101780.19;5183296;28;20034;-81
2021/07/10 04:29:54;;;;;;;41.90;21.38;;;;;;;13.98;100.00;101778.16;5182612;28;20030;-81
2021/07/10 04:32:24;;;;;;;48.10;24.33;;;;;;;14.08;100.00;101778.84;5183533;28;20029;-81
2021/07/10 04:34:55;;;;;;;42.67;21.50;;;;;;;14.14;100.00;101770.06;5182586;28;20030;-81
2021/07/10 04:37:25;;;;;;;43.45;20.20;;;;;;;14.21;100.00;101765.69;5182341;28;20028;-81
2021/07/10 04:39:56;;;;;;;43.25;22.92;;;;;;;14.28;100.00;101770.41;5181834;28;20084;-81
2021/07/10 04:42:26;;;;;;;41.50;21.17;;;;;;;14.35;100.00;101782.22;5182959;28;20037;-81
2021/07/10 04:44:57;;;;;;;44.35;22.00;;;;;;;14.39;100.00;101779.03;5183133;28;20094;-81
2021/07/10 04:47:27;;;;;;;45.78;22.90;;;;;;;14.46;100.00;101776.50;5183205;28;20365;-81
2021/07/10 04:49:58;;;;;;;44.72;22.75;;;;;;;14.53;100.00;101782.09;5164680;28;20026;-80
2021/07/10 04:52:28;;;;;;;44.90;22.95;;;;;;;14.60;100.00;101800.13;5182648;28;20040;-80
2021/07/10 04:54:59;;;;;;;50.22;23.08;;;;;;;14.66;100.00;101790.50;5165164;28;20104;-87
2021/07/10 04:57:29;;;;;;;40.08;21.02;;;;;;;14.72;100.00;101781.75;5186628;28;20029;-80
2021/07/10 05:00:00;;;;;;;48.30;23.52;;;;;;;14.85;100.00;101792.00;5202358;28;20025;-81
2021/07/10 05:02:31;;;;;;;43.90;22.42;;;;;;;14.94;100.00;101785.59;5200493;28;20033;-81
2021/07/10 05:05:02;;;;;;;42.70;23.10;;;;;;;15.02;100.00;101778.31;5181233;28;20022;-81
2021/07/10 05:07:32;;;;;;;40.67;20.83;;;;;;;15.10;100.00;101779.28;5203039;28;20055;-80
2021/07/10 05:10:05;;;;;;;39.38;21.85;;;;;;;15.15;100.00;101776.91;5184282;28;20025;-80
2021/07/10 05:12:35;;;;;;;37.17;22.08;;;;;;;15.19;100.00;101778.25;5202931;28;20037;-80
2021/07/10 05:15:06;;;;;;;41.38;21.88;;;;;;;15.24;100.00;101778.56;5202485;28;20480;-81
2021/07/10 05:17:37;;;;;;;41.38;21.95;;;;;;;15.27;100.00;101775.53;5203629;28;20041;-80
2021/07/10 05:20:09;;;;;;;42.97;22.33;;;;;;;15.36;100.00;101771.78;5201556;28;20022;-81
2021/07/10 05:22:39;;;;;;;43.97;22.83;;;;;;;15.43;100.00;101771.91;5202877;28;20108;-81
2021/07/10 05:25:11;;;;;;;38.28;20.63;;;;;;;15.55;100.00;101773.22;5202348;28;20112;-81
2021/07/10 05:27:42;;;;;;;38.30;21.88;;;;;;;15.65;100.00;101775.72;5198332;28;20159;-81
2021/07/10 05:30:16;;;;;;;41.13;21.85;;;;;;;15.73;100.00;101776.53;5175546;28;20029;-81
2021/07/10 05:32:46;;;;;;;42.78;21.38;;;;;;;15.77;100.00;101772.47;5193299;28;20057;-81
2021/07/10 05:35:18;;;;;;;40.53;21.27;;;;;;;15.90;100.00;101774.56;5159311;28;20338;-81
2021/07/10 05:37:49;;;;;;;36.53;19.58;;;;;;;16.03;100.00;101776.69;5173773;28;20435;-80
2021/07/10 05:40:20;;;;;;;35.80;19.55;;;;;;;16.27;100.00;101771.09;5177769;28;20484;-80
2021/07/10 05:42:51;;;;;;;36.20;18.90;;;;;;;16.57;100.00;101771.19;5179930;28;20029;-81
2021/07/10 05:45:21;;;;;;;38.47;19.20;;;;;;;16.69;100.00;101772.41;5179262;28;20381;-81
2021/07/10 05:47:52;;;;;;;34.15;19.80;;;;;;;16.94;100.00;101775.75;5179816;28;20451;-81
2021/07/10 05:50:22;;;;;;;33.10;17.92;;;;;;;16.97;100.00;101769.16;5177878;28;20117;-81
2021/07/10 05:52:53;;;;;;;31.33;17.48;;;;;;;17.09;100.00;101773.91;5161541;28;20030;-80
2021/07/10 05:55:23;;;;;;;30.27;16.73;;;;;;;17.20;100.00;101774.47;5179495;28;20083;-81
2021/07/10 05:57:54;;;;;;;27.80;16.55;;;;;;;17.26;100.00;101762.84;5187528;28;20028;-81
2021/07/10 06:00:24;;;;;;;29.27;16.05;;;;;;;17.49;100.00;101754.63;5198121;28;20061;-80
2021/07/10 06:02:55;;;;;;;26.70;15.68;;;;;;;17.59;100.00;101766.00;5191636;28;20060;-83
2021/07/10 06:05:26;;;;;;;29.08;17.55;;;;;;;17.52;100.00;101763.22;5163515;28;20201;-84
2021/07/10 06:07:56;;;;;;;27.88;16.10;;;;;;;17.49;100.00;101760.88;5200434;28;20037;-83
2021/07/10 06:10:27;;;;;;;28.42;16.63;;;;;;;17.50;100.00;101759.00;5180763;28;20384;-84
2021/07/10 06:12:57;;;;;;;31.55;16.52;;;;;;;17.55;100.00;101751.13;5199734;28;20025;-85
2021/07/10 06:15:28;;;;;;;30.48;17.00;;;;;;;17.60;100.00;101759.53;5199765;28;20315;-86
2021/07/10 06:17:58;;;;;;;30.73;17.05;;;;;;;17.56;100.00;101760.94;5200022;28;20457;-85
2021/07/10 06:20:29;;;;;;;35.05;18.52;;;;;;;17.55;100.00;101761.97;5198013;28;20087;-85
2021/07/10 06:23:00;;;;;;;34.42;19.60;;;;;;;17.60;100.00;101760.38;5186542;28;20307;-85
2021/07/10 06:25:33;;;;;;;33.70;18.27;;;;;;;17.69;100.00;101763.00;5179328;28;20037;-82
2021/07/10 06:28:06;;;;;;;34.70;18.83;;;;;;;17.75;100.00;101770.41;5181092;28;20034;-84
2021/07/10 06:30:37;;;;;;;29.58;17.40;;;;;;;17.78;100.00;101768.16;5171362;28;20030;-84
2021/07/10 06:33:07;;;;;;;36.58;18.80;;;;;;;17.84;100.00;101766.53;5181614;28;20021;-86
2021/07/10 06:35:38;;;;;;;36.90;19.88;;;;;;;17.84;100.00;101763.81;5189333;28;20377;-85
2021/07/10 06:38:08;;;;;;;33.28;17.27;;;;;;;17.93;100.00;101757.25;5184397;28;20568;-86
2021/07/10 06:40:38;;;;;;;31.98;18.23;;;;;;;17.98;100.00;101767.53;5186273;28;20522;-86
2021/07/10 06:43:09;;;;;;;45.72;22.55;;;;;;;17.99;100.00;101761.06;5161295;28;20104;-85
2021/07/10 06:45:39;;;;;;;43.28;21.60;;;;;;;18.02;100.00;101766.09;5161925;28;20026;-85
2021/07/10 06:48:10;;;;;;;53.10;23.45;;;;;;;18.05;100.00;101760.28;5169498;28;20184;-85
2021/07/10 06:50:40;;;;;;;39.75;22.02;;;;;;;18.30;100.00;101758.84;5198175;28;20362;-82
2021/07/10 06:53:11;;;;;;;46.22;24.05;;;;;;;18.27;100.00;101763.81;5181119;28;20558;-83
2021/07/10 06:55:41;;;;;;;53.75;24.38;;;;;;;18.25;100.00;101763.19;5199814;28;20036;-85
2021/07/10 06:58:12;;;;;;;55.22;25.55;;;;;;;18.20;100.00;101765.66;5171967;28;20083;-84
2021/07/10 07:00:42;;;;;;;47.80;26.42;;;;;;;18.13;100.00;101765.59;5199534;28;20033;-87
2021/07/10 07:03:13;;;;;;;46.55;23.65;;;;;;;18.23;100.00;101768.00;5191514;28;20029;-91
2021/07/10 07:05:43;;;;;;;46.80;24.92;;;;;;;18.20;100.00;101769.22;5184725;28;20053;-88
2021/07/10 07:08:14;;;;;;;48.60;25.10;;;;;;;18.36;100.00;101776.25;5195383;28;20112;-89
2021/07/10 07:10:45;;;;;;;44.88;23.13;;;;;;;18.63;100.00;101771.91;5182565;28;20072;-82
2021/07/10 07:13:15;;;;;;;43.38;21.30;;;;;;;18.76;100.00;101769.28;5182096;28;20558;-83
2021/07/10 07:15:46;;;;;;;41.42;21.33;;;;;;;18.76;100.00;101765.72;5190535;28;20056;-83
2021/07/10 07:18:17;;;;;;;42.35;21.98;;;;;;;18.93;100.00;101766.28;5185040;28;20510;-83
2021/07/10 07:20:48;;;;;;;45.03;22.98;;;;;;;19.01;100.00;101763.41;5201763;28;20322;-85
2021/07/10 07:23:18;;;;;;;56.10;22.25;;;;;;;19.12;100.00;101755.50;5200133;28;20121;-87
2021/07/10 07:25:49;;;;;;;41.25;21.30;;;;;;;19.34;100.00;101761.72;5193357;28;20140;-86
2021/07/10 07:28:19;;;;;;;45.15;24.15;;;;;;;19.41;100.00;101759.00;5186627;28;20022;-86
2021/07/10 07:30:50;;;;;;;48.60;22.05;;;;;;;19.51;100.00;101756.75;5181174;28;20508;-87
2021/07/10 07:33:20;;;;;;;47.15;22.75;;;;;;;19.51;100.00;101753.19;5194882;28;20026;-87
2021/07/10 07:35:51;;;;;;;44.47;23.40;;;;;;;19.68;100.00;101751.84;5165811;28;20079;-87
2021/07/10 07:38:21;;;;;;;44.97;23.15;;;;;;;19.66;100.00;101746.56;5182714;28;20030;-87
2021/07/10 07:40:52;;;;;;;47.00;24.08;;;;;;;19.63;100.00;101755.16;5163733;28;20492;-87
2021/07/10 07:43:22;;;;;;;42.28;21.95;;;;;;;19.70;100.00;101755.19;5181621;28;20456;-87
2021/07/10 07:45:53;;;;;;;43.30;21.58;;;;;;;20.01;100.00;101753.78;5182649;28;20042;-88
2021/07/10 07:48:26;;;;;;;47.30;23.13;;;;;;;20.21;100.00;101751.09;5182731;28;20022;-91
2021/07/10 07:50:56;;;;;;;41.15;21.63;;;;;;;20.07;100.00;101745.63;5183857;28;20079;-85
2021/07/10 07:53:27;;;;;;;51.33;23.92;;;;;;;19.98;100.00;101743.28;5174827;28;20030;-83
2021/07/10 07:55:58;;;;;;;46.20;25.10;;;;;;;20.06;100.00;101743.13;5177989;28;20411;-85
2021/07/10 07:58:28;;;;;;;44.90;23.10;;;;;;;20.25;100.00;101745.03;5165673;28;20088;-86
2021/07/10 08:00:58;;;;;;;49.97;24.20;;;;;;;20.29;100.00;101740.00;5180849;28;20125;-85
2021/07/10 08:03:29;;;;;;;46.08;23.38;;;;;;;20.63;100.00;101736.22;5195898;28;20555;-84
2021/07/10 08:06:00;;;;;;;40.75;22.73;;;;;;;20.85;100.00;101737.69;5182274;28;20424;-86
2021/07/10 08:08:33;;;;;;;43.28;22.42;;;;;;;21.24;100.00;101730.44;5195571;28;20068;-87
2021/07/10 08:11:04;;;;;;;41.00;20.70;;;;;;;21.36;100.00;101728.75;5179967;28;20036;-89
2021/07/10 08:13:36;;;;;;;44.70;21.33;;;;;;;21.54;100.00;101719.03;5181553;28;20036;-89
2021/07/10 08:16:09;;;;;;;36.10;20.45;;;;;;;21.92;100.00;101719.81;5182493;28;20072;-93
2021/07/10 08:18:40;;;;;;;30.63;16.17;;;;;;;22.58;100.00;101725.84;5164757;28;20555;-90
2021/07/10 08:21:10;;;;;;;31.40;16.85;;;;;;;22.57;100.00;101722.28;5192325;28;20026;-90
2021/07/10 08:23:41;;;;;;;27.30;15.50;;;;;;;22.86;100.00;101714.44;5195924;28;20037;-87
2021/07/10 08:26:13;;;;;;;28.45;16.10;;;;;;;23.23;100.00;101710.66;5182045;28;20034;-84
2021/07/10 08:28:43;;;;;;;34.85;18.00;;;;;;;23.35;100.00;101697.03;5188377;28;20083;-84
2021/07/10 08:31:14;;;;;;;32.03;17.63;;;;;;;23.53;100.00;101705.19;5185107;28;20116;-85
2021/07/10 08:33:44;;;;;;;29.45;16.48;;;;;;;23.77;100.00;101694.38;5180887;28;20032;-85
2021/07/10 08:36:15;;;;;;;28.45;15.35;;;;;;;23.57;100.00;101694.63;5181576;28;20028;-84
2021/07/10 08:38:45;;;;;;;34.55;15.52;;;;;;;23.81;100.00;101695.59;5164047;28;20033;-84
2021/07/10 08:41:16;;;;;;;28.88;14.02;;;;;;;23.80;100.00;101695.78;5183681;28;20439;-83
2021/07/10 08:43:47;;;;;;;23.92;13.50;;;;;;;23.75;100.00;101691.88;5200083;28;20509;-82
2021/07/10 08:46:20;;;;;;;21.08;12.45;;;;;;;23.86;100.00;101692.97;5196684;28;20217;-86
2021/07/10 08:48:51;;;;;;;20.40;12.60;;;;;;;23.76;100.00;101695.44;5180850;28;20075;-83
2021/07/10 08:51:22;;;;;;;20.42;12.30;;;;;;;23.22;100.00;101687.09;5179832;28;20116;-82
2021/07/10 08:53:52;;;;;;;22.80;13.18;;;;;;;23.45;100.00;101685.53;5180057;28;20395;-83
2021/07/10 08:56:23;;;;;;;28.67;14.50;;;;;;;23.62;100.00;101685.72;5186026;28;20241;-82
2021/07/10 08:58:53;;;;;;;21.92;11.63;;;;;;;24.08;100.00;101687.78;5185597;28;20026;-82
2021/07/10 09:01:24;;;;;;;20.00;11.25;;;;;;;24.72;100.00;101691.53;5179042;28;20040;-83
2021/07/10 09:03:55;;;;;;;19.35;10.55;;;;;;;24.34;100.00;101689.22;5184477;28;20438;-82
2021/07/10 09:06:25;;;;;;;18.08;10.82;;;;;;;24.77;100.00;101685.31;5183540;28;20049;-83
2021/07/10 09:08:56;;;;;;;17.88;11.18;;;;;;;24.23;100.00;101685.41;5187024;28;20116;-84
2021/07/10 09:11:26;;;;;;;22.48;10.38;;;;;;;24.55;100.00;101674.16;5188340;28;20025;-88
2021/07/10 09:13:57;;;;;;;17.85;10.60;;;;;;;24.61;100.00;101684.16;5194244;28;20392;-84
2021/07/10 09:16:30;;;;;;;19.75;10.75;;;;;;;24.39;100.00;101681.16;5163523;28;20084;-86
2021/07/10 09:19:23;;;;;;;16.88;9.65;;;;;;;24.25;100.00;101686.03;5175223;28;20018;-84
2021/07/10 09:21:54;;;;;;;15.63;9.15;;;;;;;24.33;100.00;101673.84;5180653;28;20263;-83
2021/07/10 09:24:30;;;;;;;12.50;7.78;;;;;;;24.20;100.00;101680.41;5191480;28;20027;-84
2021/07/10 09:27:04;;;;;;;12.65;8.00;;;;;;;24.63;100.00;101676.50;5181248;28;20022;-82
2021/07/10 09:29:44;;;;;;;14.30;7.68;;;;;;;24.47;100.00;101678.06;5179061;28;20458;-88
2021/07/10 09:32:19;;;;;;;14.35;7.93;;;;;;;24.76;100.00;101670.78;5180746;28;20025;-83
2021/07/10 09:34:52;;;;;;;11.68;7.68;;;;;;;25.18;100.00;101667.84;5166895;28;20021;-82
2021/07/10 09:37:24;;;;;;;13.35;6.60;;;;;;;25.07;100.00;101659.66;5189643;28;20022;-82
2021/07/10 09:39:57;;;;;;;13.18;7.63;;;;;;;24.95;100.00;101659.63;5184440;28;20033;-82
2021/07/10 09:42:34;;;;;;;15.32;8.45;;;;;;;24.56;100.00;101659.34;5200672;28;20029;-84
2021/07/10 09:45:08;;;;;;;17.10;7.82;;;;;;;25.04;100.00;101663.66;5179863;28;20022;-90
2021/07/10 09:47:38;;;;;;;10.48;6.90;;;;;;;25.64;100.00;101648.66;5193819;28;20102;-89
2021/07/10 09:50:09;;;;;;;13.23;7.47;;;;;;;26.30;89.10;101649.78;5179898;28;20041;-89
2021/07/10 09:52:40;;;;;;;14.05;6.97;;;;;;;26.46;94.99;101639.91;5179642;28;20114;-82
2021/07/10 09:55:13;;;;;;;14.15;7.57;;;;;;;26.70;77.51;101632.22;5179753;28;20026;-82
2021/07/10 09:57:45;;;;;;;13.35;8.05;;;;;;;25.83;100.00;101637.22;5185461;28;20021;-81
2021/07/10 10:00:20;;;;;;;12.73;7.70;;;;;;;25.02;100.00;101630.97;5198291;28;20757;-81
2021/07/10 10:02:53;;;;;;;13.85;7.05;;;;;;;25.63;85.14;101625.00;5193403;28;20488;-81
2021/07/10 10:05:29;;;;;;;11.63;6.90;;;;;;;25.70;91.40;101620.19;5181418;28;20496;-82
2021/07/10 10:08:01;;;;;;;12.23;7.43;;;;;;;25.51;100.00;101623.16;5189936;28;20030;-81
2021/07/10 10:10:36;;;;;;;8.02;4.72;;;;;;;25.36;87.51;101614.66;5178501;28;20335;-82
2021/07/10 10:13:07;;;;;;;;;;;;;;;25.23;93.92;101614.94;5179400;28;20072;-82
2021/07/10 10:15:47;;;;;;;6.70;3.80;;;;;;;25.39;88.05;101613.31;5179506;28;19921;-82
2021/07/10 10:18:21;;;;;;;6.35;4.30;;;;;;;25.41;90.56;101608.41;5179623;28;20030;-82
2021/07/10 10:20:53;;;;;;;10.17;4.87;;;;;;;25.53;89.16;101610.00;5177993;28;20059;-82
2021/07/10 10:23:24;;;;;;;7.10;4.15;;;;;;;25.53;84.20;101607.25;5161437;28;20287;-83
2021/07/10 10:25:54;;;;;;;8.43;4.15;;;;;;;25.83;85.35;101606.16;5179122;28;20022;-84
2021/07/10 10:28:25;;;;;;;6.68;3.78;;;;;;;26.06;71.97;101610.66;5179287;28;20384;-84
2021/07/10 10:30:56;;;;;;;8.32;3.70;;;;;;;25.95;75.97;101603.31;5177944;28;20030;-84
2021/07/10 10:33:27;;;;;;;5.43;3.85;;;;;;;26.11;77.95;101605.25;5185506;28;20580;-84
2021/07/10 10:35:57;;;;;;;9.25;4.60;;;;;;;25.80;70.70;101598.41;5182882;28;20104;-83
2021/07/10 10:38:29;;;;;;;7.05;3.90;;;;;;;25.89;68.29;101596.06;5191766;28;20036;-84
2021/07/10 10:41:05;;;;;;;10.15;3.90;;;;;;;25.53;81.17;101589.94;5202546;28;20065;-84
2021/07/10 10:43:36;;;;;;;4.97;3.17;;;;;;;25.86;76.78;101597.41;5203818;28;20215;-82
2021/07/10 10:46:12;;;;;;;7.07;3.70;;;;;;;25.61;73.03;101585.97;5203410;28;20033;-82
2021/07/10 10:48:43;;;;;;;6.70;3.65;;;;;;;25.71;72.44;101586.16;5202984;28;20438;-81
2021/07/10 10:51:29;;;;;;;5.93;4.45;;;;;;;25.52;94.10;101588.28;5197140;28;20033;-82
2021/07/10 10:54:19;;;;;;;8.45;4.32;;;;;;;25.53;84.22;101581.69;5182753;28;20036;-82
2021/07/10 10:56:49;;;;;;;7.50;4.28;;;;;;;25.56;83.51;101583.97;5182630;28;20034;-82
2021/07/10 10:59:40;;;;;;;6.30;4.03;;;;;;;25.52;71.68;101571.81;5199561;28;20036;-82
2021/07/10 11:02:25;;;;;;;7.45;4.07;;;;;;;25.88;70.71;101570.50;5202132;28;20021;-83
2021/07/10 11:04:57;;;;;;;8.15;4.18;;;;;;;25.79;66.58;101564.59;5183333;28;20030;-83
2021/07/10 11:07:31;;;;;;;6.07;3.97;;;;;;;25.30;87.60;101561.53;5202742;28;20112;-82
2021/07/10 11:10:02;;;;;;;7.80;4.65;;;;;;;25.02;100.00;101559.59;5201305;28;20108;-82
2021/07/10 11:12:46;;;;;;;7.65;3.78;;;;;;;25.02;100.00;101559.59;5196177;28;20516;-84
2021/07/10 11:15:41;;;;;;;6.32;4.05;;;;;;;24.64;92.62;101551.16;5164622;28;20025;-82
2021/07/10 11:18:27;;;;;;;6.30;4.30;;;;;;;24.32;100.00;101565.25;5182678;28;20033;-83
2021/07/10 11:20:58;;;;;;;7.95;3.80;;;;;;;24.40;98.45;101564.06;5181401;28;20052;-83
2021/07/10 11:23:32;;;;;;;6.55;3.90;;;;;;;24.46;100.00;101566.69;5181981;28;20451;-82
2021/07/10 11:26:10;;;;;;;5.18;3.70;;;;;;;24.15;93.63;101561.59;5164321;28;20026;-82